Time;durP1;ratioP1;P1;durP2;ratioP2;P2;SDS_P1;SDS_P2;PMS_P1;PMS_P2;Temp;Humidity;BMP_temperature;BMP_pressure;BME280_temperature;BME280_humidity;BME280_pressure;Samples;Min_cycle;Max_cycle;Signal;HPM_P1;HPM_P2
2022/11/11 05:04:26;;;;;;;4.20;3.80;;;4.30;99.90;;;;;;5726484;23;20618;-66
2022/11/11 05:09:36;;;;;;;6.53;4.07;;;4.20;99.90;;;;;;4982561;28;20178;-66
2022/11/11 05:12:02;;;;;;;4.13;3.83;;;4.20;99.90;;;;;;4975040;28;20168;-67
2022/11/11 05:22:42;;;;;;;4.00;3.60;;;4.30;99.90;;;;;;4955315;29;20604;-66
2022/11/11 05:25:25;;;;;;;5.18;4.35;;;4.30;99.90;;;;;;4955439;28;20233;-66
2022/11/11 05:27:57;;;;;;;3.38;3.15;;;4.30;99.90;;;;;;4972560;28;20187;-66
2022/11/11 05:30:24;;;;;;;4.90;4.32;;;4.30;99.90;;;;;;4975051;28;20176;-66
2022/11/11 05:32:50;;;;;;;5.28;4.72;;;4.30;99.90;;;;;;4974513;28;20186;-66
2022/11/11 05:35:16;;;;;;;4.13;3.55;;;4.40;99.90;;;;;;4973381;28;20251;-66
2022/11/11 05:37:43;;;;;;;5.82;4.75;;;4.30;99.90;;;;;;4971788;28;20187;-67
2022/11/11 05:40:09;;;;;;;4.05;3.65;;;4.30;99.90;;;;;;4955212;29;20708;-66
2022/11/11 05:42:39;;;;;;;4.53;4.13;;;4.30;99.90;;;;;;4954900;29;20201;-66
2022/11/11 05:45:05;;;;;;;4.85;4.05;;;4.30;99.90;;;;;;4955006;28;20184;-66
2022/11/11 05:47:31;;;;;;;5.18;4.47;;;4.30;99.90;;;;;;4968027;28;20334;-66
2022/11/11 05:49:56;;;;;;;4.83;4.40;;;4.30;99.90;;;;;;4974344;28;20252;-66
2022/11/11 05:52:22;;;;;;;5.47;4.70;;;4.30;99.90;;;;;;4974427;28;20173;-66
2022/11/11 05:54:47;;;;;;;4.93;4.07;;;4.30;99.90;;;;;;4973810;28;20238;-66
2022/11/11 05:57:13;;;;;;;4.03;3.73;;;4.30;99.90;;;;;;4963296;28;20177;-66
2022/11/11 05:59:39;;;;;;;5.83;5.10;;;4.20;99.90;;;;;;4955541;29;20252;-65
2022/11/11 06:02:05;;;;;;;5.40;4.70;;;4.20;99.90;;;;;;4961405;28;20456;-65
2022/11/11 06:04:33;;;;;;;5.13;4.00;;;4.20;99.90;;;;;;4974096;28;20184;-64
2022/11/11 06:06:58;;;;;;;4.85;4.32;;;4.20;99.90;;;;;;4973842;28;20188;-64
2022/11/11 06:09:24;;;;;;;6.63;5.40;;;4.20;99.90;;;;;;4973844;28;20223;-65
2022/11/11 06:11:52;;;;;;;4.70;4.30;;;4.20;99.90;;;;;;4974242;28;20208;-68
2022/11/11 06:14:24;;;;;;;4.38;3.95;;;4.30;99.90;;;;;;4973542;28;20192;-65
2022/11/11 06:16:50;;;;;;;5.40;4.45;;;4.30;99.90;;;;;;4974108;28;20184;-67
2022/11/11 06:19:15;;;;;;;6.60;4.47;;;4.30;99.90;;;;;;4973839;28;20168;-68
2022/11/11 06:21:56;;;;;;;5.67;4.93;;;4.30;99.90;;;;;;4974200;28;20556;-66
2022/11/11 06:24:23;;;;;;;5.13;4.55;;;4.30;99.90;;;;;;4973667;28;20293;-66
2022/11/11 06:26:49;;;;;;;3.65;3.35;;;4.30;99.90;;;;;;4956682;28;20183;-66
2022/11/11 06:29:14;;;;;;;5.30;4.90;;;4.30;99.90;;;;;;4973647;28;20172;-66
2022/11/11 06:31:40;;;;;;;4.90;4.50;;;4.20;99.90;;;;;;4974025;28;20178;-65
2022/11/11 06:34:06;;;;;;;4.27;3.97;;;4.20;99.90;;;;;;4973335;28;20251;-66
2022/11/11 06:36:32;;;;;;;5.00;4.43;;;4.30;99.90;;;;;;4974132;28;20967;-67
2022/11/11 06:38:57;;;;;;;4.70;4.30;;;4.20;99.90;;;;;;4973707;28;20180;-67
2022/11/11 06:41:24;;;;;;;4.60;2.60;;;4.20;99.90;;;;;;4956718;28;20196;-67
2022/11/11 06:43:50;;;;;;;5.90;4.20;;;4.30;99.90;;;;;;4973076;28;20202;-68
2022/11/11 06:46:21;;;;;;;7.73;4.87;;;4.30;99.90;;;;;;4973828;28;20528;-66
2022/11/11 06:48:47;;;;;;;4.97;4.57;;;4.30;99.90;;;;;;4973880;28;20172;-66
2022/11/11 06:51:16;;;;;;;6.13;4.37;;;4.40;99.90;;;;;;4973719;28;20175;-66
2022/11/11 06:53:42;;;;;;;4.80;3.92;;;4.40;99.90;;;;;;4973152;28;20644;-67
2022/11/11 06:56:08;;;;;;;5.17;4.57;;;4.40;99.90;;;;;;4973667;28;20259;-68
2022/11/11 06:58:34;;;;;;;6.70;5.53;;;4.40;99.90;;;;;;4973451;28;20428;-69
2022/11/11 07:01:03;;;;;;;12.37;6.30;;;4.50;99.90;;;;;;4973549;28;20222;-68
2022/11/11 07:03:29;;;;;;;11.75;6.47;;;4.60;99.90;;;;;;4973026;28;20166;-68
2022/11/11 07:05:55;;;;;;;5.77;5.17;;;4.60;99.90;;;;;;4973114;28;20212;-69
2022/11/11 07:08:21;;;;;;;5.00;3.97;;;4.60;99.90;;;;;;4973460;28;20418;-68
2022/11/11 07:10:49;;;;;;;6.50;5.80;;;4.70;99.90;;;;;;4972709;28;20177;-67
2022/11/11 07:13:15;;;;;;;6.63;5.95;;;4.80;99.90;;;;;;4973172;28;20599;-68
2022/11/11 07:15:44;;;;;;;5.63;4.93;;;4.80;99.90;;;;;;4977003;28;20688;-66
2022/11/11 07:18:13;;;;;;;4.63;4.22;;;4.90;99.90;;;;;;4959291;28;20187;-66
2022/11/11 07:20:44;;;;;;;4.57;4.18;;;5.00;99.90;;;;;;4976848;28;20717;-66
2022/11/11 07:23:09;;;;;;;6.40;4.85;;;5.00;99.90;;;;;;4976574;28;20185;-67
2022/11/11 07:25:35;;;;;;;5.10;4.60;;;5.00;99.90;;;;;;4976337;28;20208;-66
2022/11/11 07:28:03;;;;;;;8.40;5.20;;;5.10;99.90;;;;;;4975801;28;20839;-67
2022/11/11 07:30:29;;;;;;;9.07;7.25;;;5.20;99.90;;;;;;4977212;28;20201;-67
2022/11/11 07:32:54;;;;;;;6.47;4.77;;;5.40;99.90;;;;;;4976579;28;20212;-67
2022/11/11 07:35:21;;;;;;;6.60;5.57;;;5.40;99.90;;;;;;4959201;28;20292;-66
2022/11/11 07:37:46;;;;;;;7.80;5.97;;;5.50;99.90;;;;;;4976882;28;20209;-68
2022/11/11 07:40:15;;;;;;;6.63;5.70;;;5.60;99.90;;;;;;4975995;28;20214;-68
2022/11/11 07:42:41;;;;;;;7.93;5.88;;;5.60;99.90;;;;;;4975974;28;20226;-67
2022/11/11 07:45:08;;;;;;;6.88;6.25;;;5.80;99.90;;;;;;4976595;28;20273;-68
2022/11/11 07:47:34;;;;;;;8.70;5.50;;;5.90;99.90;;;;;;4976367;28;20204;-67
2022/11/11 07:50:04;;;;;;;5.10;4.60;;;6.00;99.90;;;;;;4976481;28;20677;-67
2022/11/11 07:52:30;;;;;;;7.28;4.88;;;6.20;99.90;;;;;;4976110;28;20407;-70
2022/11/11 07:54:56;;;;;;;9.63;4.63;;;6.30;99.90;;;;;;4962392;28;20677;-67
2022/11/11 07:57:22;;;;;;;6.00;4.73;;;6.50;99.90;;;;;;4973531;28;20191;-68
2022/11/11 07:59:47;;;;;;;6.07;5.53;;;6.60;99.90;;;;;;4976588;28;20499;-68
2022/11/11 08:02:16;;;;;;;6.00;5.00;;;6.80;99.90;;;;;;4974430;28;20530;-67
2022/11/11 08:04:41;;;;;;;5.60;5.10;;;6.90;99.90;;;;;;4975625;28;20199;-67
2022/11/11 08:07:07;;;;;;;4.93;4.47;;;7.10;99.90;;;;;;4974506;28;20216;-66
2022/11/11 08:09:33;;;;;;;5.87;5.17;;;7.30;99.90;;;;;;4975720;28;20180;-68
2022/11/11 08:14:42;;;;;;;7.80;5.28;;;7.60;99.90;;;;;;4976127;28;20195;-67
2022/11/11 08:17:08;;;;;;;6.67;4.43;;;7.70;99.90;;;;;;4976060;28;20176;-66
2022/11/11 08:19:33;;;;;;;5.90;5.30;;;7.90;99.90;;;;;;4975848;28;20652;-67
2022/11/11 08:21:59;;;;;;;4.60;3.87;;;8.10;99.90;;;;;;4975445;28;20334;-68
2022/11/11 08:24:28;;;;;;;6.03;3.97;;;8.30;99.90;;;;;;4975085;28;20211;-68
2022/11/11 08:26:56;;;;;;;4.93;4.50;;;8.60;99.90;;;;;;4958491;28;20172;-68
2022/11/11 08:29:22;;;;;;;6.57;4.70;;;8.80;99.90;;;;;;4975733;28;20176;-68
2022/11/11 08:31:47;;;;;;;4.63;4.20;;;9.10;99.90;;;;;;4975937;28;20168;-67
2022/11/11 08:34:13;;;;;;;3.97;3.67;;;9.40;99.90;;;;;;4975187;28;20688;-68
2022/11/11 08:36:38;;;;;;;4.07;3.73;;;9.70;99.90;;;;;;4975632;28;20181;-68
2022/11/11 08:39:04;;;;;;;5.37;4.20;;;9.90;99.90;;;;;;4958357;28;20273;-68
2022/11/11 08:41:33;;;;;;;4.70;4.30;;;10.00;99.90;;;;;;4975623;28;20678;-69
2022/11/11 08:43:59;;;;;;;4.23;3.77;;;10.10;99.90;;;;;;4975097;28;20778;-72
2022/11/11 08:46:25;;;;;;;4.30;3.90;;;10.20;99.90;;;;;;4975624;28;20420;-70
2022/11/11 08:48:57;;;;;;;5.10;3.57;;;10.50;99.90;;;;;;4975424;28;20925;-67
2022/11/11 08:51:23;;;;;;;5.20;4.70;;;11.00;99.90;;;;;;4974164;28;20953;-67
2022/11/11 08:53:51;;;;;;;6.83;3.90;;;11.60;99.90;;;;;;4974897;28;20427;-67
2022/11/11 08:56:20;;;;;;;4.20;3.87;;;12.00;99.90;;;;;;4975257;28;20255;-67
2022/11/11 08:58:48;;;;;;;5.57;4.00;;;12.40;99.90;;;;;;4975212;28;20891;-67
2022/11/11 09:01:16;;;;;;;3.37;3.17;;;13.00;99.90;;;;;;4974911;28;20504;-67
2022/11/11 09:03:45;;;;;;;3.83;3.37;;;13.50;99.90;;;;;;4975101;28;20410;-69
2022/11/11 09:06:13;;;;;;;4.00;3.60;;;14.10;99.90;;;;;;4957880;28;20467;-67
2022/11/11 09:08:43;;;;;;;7.83;3.33;;;14.70;99.90;;;;;;4974645;28;20422;-67
2022/11/11 09:11:09;;;;;;;3.93;3.63;;;15.20;99.90;;;;;;4974993;28;20433;-67
2022/11/11 09:13:34;;;;;;;3.40;2.93;;;15.70;99.90;;;;;;4974620;28;20415;-66
2022/11/11 09:16:03;;;;;;;5.30;3.27;;;16.40;99.90;;;;;;4975103;28;20533;-67
2022/11/11 09:18:30;;;;;;;3.40;3.10;;;16.60;99.90;;;;;;4974597;28;20196;-66
2022/11/11 09:20:59;;;;;;;3.50;3.23;;;16.90;99.90;;;;;;4973788;28;20872;-67
2022/11/11 09:23:25;;;;;;;3.63;3.33;;;17.10;99.90;;;;;;4973543;28;20734;-68
2022/11/11 09:25:51;;;;;;;5.13;3.80;;;17.30;99.90;;;;;;4974164;28;20404;-68
2022/11/11 09:28:16;;;;;;;3.43;3.20;;;17.60;99.90;;;;;;4974649;28;20386;-67
2022/11/11 09:30:42;;;;;;;3.97;3.67;;;18.00;99.90;;;;;;4974641;28;20699;-68
2022/11/11 09:33:08;;;;;;;3.50;3.20;;;18.20;99.90;;;;;;4973969;28;20176;-66
2022/11/11 09:35:36;;;;;;;3.87;3.47;;;18.40;99.90;;;;;;4972949;28;20203;-70
2022/11/11 09:38:03;;;;;;;3.20;2.90;;;18.70;99.00;;;;;;4973385;28;20409;-67
2022/11/11 09:41:14;;;;;;;4.40;3.03;;;19.00;98.50;;;;;;4956474;28;20962;-68
2022/11/11 09:43:53;;;;;;;3.53;3.23;;;19.30;97.50;;;;;;4968307;28;20786;-68
2022/11/11 09:46:46;;;;;;;6.10;3.30;;;19.10;96.30;;;;;;4974250;28;20390;-68
2022/11/11 09:49:39;;;;;;;3.30;3.10;;;19.00;97.70;;;;;;4973867;28;20455;-68
2022/11/11 09:52:16;;;;;;;3.00;2.80;;;19.00;97.20;;;;;;4957048;28;20420;-67
2022/11/11 09:54:58;;;;;;;5.50;3.50;;;19.10;97.10;;;;;;4973930;28;20942;-67
2022/11/11 09:57:37;;;;;;;2.70;2.30;;;18.90;96.30;;;;;;4973816;28;20435;-68
2022/11/11 10:00:13;;;;;;;2.53;2.33;;;18.60;96.60;;;;;;4974272;28;20811;-67
2022/11/11 10:02:50;;;;;;;3.60;3.07;;;18.30;96.50;;;;;;4974140;28;20410;-67
2022/11/11 10:05:30;;;;;;;4.67;2.83;;;17.90;96.80;;;;;;4957135;28;20558;-68
2022/11/11 10:08:15;;;;;;;3.77;3.20;;;17.50;97.80;;;;;;4974091;28;20445;-67
2022/11/11 10:10:57;;;;;;;3.20;3.00;;;17.00;97.90;;;;;;4974134;28;20409;-67
2022/11/11 10:13:29;;;;;;;3.27;2.97;;;16.70;99.00;;;;;;4956068;28;20402;-67
2022/11/11 10:16:16;;;;;;;2.87;2.67;;;16.40;99.60;;;;;;4974163;28;20383;-68
2022/11/11 10:18:54;;;;;;;6.23;2.73;;;16.20;99.60;;;;;;4974567;28;20462;-67
2022/11/11 10:21:27;;;;;;;3.33;3.07;;;16.10;99.90;;;;;;4974056;28;20779;-67
2022/11/11 10:23:57;;;;;;;4.73;2.83;;;16.20;99.90;;;;;;4973232;28;20447;-66
2022/11/11 10:26:40;;;;;;;4.10;3.90;;;16.40;99.90;;;;;;4973988;28;20734;-66
2022/11/11 10:29:15;;;;;;;3.27;2.97;;;16.50;99.90;;;;;;4973790;28;20903;-65
2022/11/11 10:31:42;;;;;;;4.53;3.77;;;16.70;99.90;;;;;;4974318;28;20486;-67
2022/11/11 10:34:11;;;;;;;4.03;3.70;;;16.90;99.90;;;;;;4973494;28;20427;-67
2022/11/11 10:36:50;;;;;;;4.10;3.37;;;17.10;99.90;;;;;;4973768;28;20523;-67
2022/11/11 10:39:24;;;;;;;3.07;2.77;;;17.20;99.90;;;;;;4973655;28;20498;-66
2022/11/11 10:41:51;;;;;;;2.60;2.40;;;17.40;99.60;;;;;;4974185;28;20936;-65
2022/11/11 10:44:28;;;;;;;3.93;2.57;;;17.40;98.90;;;;;;4973869;28;20435;-66
2022/11/11 10:47:41;;;;;;;2.60;2.33;;;17.40;98.70;;;;;;4956582;28;20418;-65
2022/11/11 10:50:38;;;;;;;2.47;2.27;;;17.20;98.90;;;;;;4935472;28;20399;-65
2022/11/11 10:53:21;;;;;;;4.00;2.60;;;17.00;99.30;;;;;;4977181;28;20429;-65
2022/11/11 10:56:11;;;;;;;2.70;2.50;;;16.90;99.60;;;;;;4977152;28;20406;-66
2022/11/11 10:58:45;;;;;;;2.70;2.50;;;16.80;99.70;;;;;;4977879;28;20422;-65
2022/11/11 11:01:15;;;;;;;2.43;2.23;;;16.50;99.30;;;;;;4977421;28;20609;-65
2022/11/11 11:03:44;;;;;;;2.73;2.53;;;16.30;99.40;;;;;;4976862;28;20595;-65
2022/11/11 11:06:32;;;;;;;3.10;2.90;;;16.20;99.80;;;;;;4953329;29;21046;-65
2022/11/11 11:09:14;;;;;;;2.80;2.60;;;15.90;99.90;;;;;;4966584;28;20467;-65
2022/11/11 11:11:58;;;;;;;3.70;2.97;;;15.50;99.90;;;;;;4977136;28;20388;-65
2022/11/11 11:14:29;;;;;;;2.83;2.63;;;15.30;99.90;;;;;;4959256;28;20868;-65
2022/11/11 11:16:58;;;;;;;2.57;2.37;;;15.10;99.90;;;;;;4977104;28;20892;-65
2022/11/11 11:19:26;;;;;;;2.83;2.57;;;15.00;99.90;;;;;;4977005;28;20416;-64
2022/11/11 11:21:55;;;;;;;2.50;2.30;;;14.90;99.90;;;;;;4962731;28;20799;-65
2022/11/11 11:24:30;;;;;;;2.30;2.10;;;14.80;99.90;;;;;;4957291;28;20490;-66
2022/11/11 11:26:58;;;;;;;2.60;1.73;;;14.70;99.90;;;;;;4957866;29;20375;-67
2022/11/11 11:29:32;;;;;;;5.33;3.00;;;14.60;99.90;;;;;;4940238;29;20775;-66
2022/11/11 11:32:20;;;;;;;2.90;2.70;;;14.50;99.90;;;;;;4957444;29;20498;-65
2022/11/11 11:34:50;;;;;;;2.80;2.50;;;14.40;99.90;;;;;;4966777;28;20443;-64
2022/11/11 11:37:17;;;;;;;2.83;2.53;;;14.30;99.90;;;;;;4976787;28;20486;-64
2022/11/11 11:39:42;;;;;;;5.00;2.80;;;14.20;99.90;;;;;;4959147;28;20415;-66
2022/11/11 11:42:10;;;;;;;2.27;2.07;;;14.10;99.90;;;;;;4976574;28;20470;-66
2022/11/11 11:44:38;;;;;;;2.50;2.03;;;14.10;99.90;;;;;;4976210;28;20203;-70
2022/11/11 11:47:25;;;;;;;4.83;2.00;;;14.00;99.90;;;;;;4976620;28;20403;-65
2022/11/11 11:50:07;;;;;;;2.33;2.13;;;13.90;99.90;;;;;;4963580;28;20427;-68
2022/11/11 11:52:54;;;;;;;2.47;2.27;;;13.90;99.90;;;;;;4939930;29;20419;-65
2022/11/11 11:55:27;;;;;;;3.60;2.33;;;13.90;99.90;;;;;;4957056;28;20820;-65
2022/11/11 11:57:52;;;;;;;3.50;2.43;;;14.00;99.90;;;;;;4940038;29;20916;-65
2022/11/11 12:00:21;;;;;;;2.53;2.33;;;14.10;99.90;;;;;;4956290;28;20411;-65
2022/11/11 12:03:38;;;;;;;2.33;2.00;;;14.10;99.90;;;;;;4957844;28;20247;-66
2022/11/11 12:06:25;;;;;;;5.40;2.40;;;14.10;99.90;;;;;;4956494;28;20435;-65
2022/11/11 12:09:00;;;;;;;3.13;2.23;;;14.20;99.90;;;;;;4962379;28;20411;-65
2022/11/11 12:12:19;;;;;;;2.63;2.53;;;14.20;99.90;;;;;;4976190;28;20383;-64
2022/11/11 12:15:30;;;;;;;2.03;1.80;;;14.40;99.90;;;;;;4897185;29;20461;-67
2022/11/11 12:18:19;;;;;;;2.20;2.00;;;14.50;99.90;;;;;;4897656;29;20423;-66
2022/11/11 12:20:57;;;;;;;1.90;1.80;;;14.50;99.90;;;;;;4952679;29;20456;-68
2022/11/11 12:23:36;;;;;;;1.73;1.60;;;14.50;99.90;;;;;;4956212;29;20411;-66
2022/11/11 12:26:35;;;;;;;2.13;1.93;;;14.50;99.90;;;;;;4957738;28;20785;-66
2022/11/11 12:29:37;;;;;;;2.10;1.90;;;14.50;99.90;;;;;;4975621;28;20403;-66
2022/11/11 12:32:26;;;;;;;2.00;1.90;;;14.40;99.90;;;;;;4975677;28;20908;-66
2022/11/11 12:35:16;;;;;;;2.77;2.00;;;14.30;99.90;;;;;;4975249;28;20431;-65
2022/11/11 12:38:03;;;;;;;2.60;2.40;;;14.30;99.90;;;;;;4975841;28;20931;-67
2022/11/11 12:41:03;;;;;;;1.90;1.80;;;14.30;99.90;;;;;;4975590;28;20400;-68
2022/11/11 12:43:50;;;;;;;2.50;2.30;;;14.50;99.90;;;;;;4975115;28;20807;-67
2022/11/11 12:46:53;;;;;;;4.30;2.50;;;14.60;99.90;;;;;;4975317;28;20400;-69
2022/11/11 12:49:31;;;;;;;3.57;3.27;;;14.60;99.90;;;;;;4975262;28;20458;-67
2022/11/11 12:52:19;;;;;;;3.23;3.03;;;14.60;99.90;;;;;;4975158;28;20414;-69
2022/11/11 12:55:03;;;;;;;2.20;2.10;;;14.70;99.90;;;;;;4974337;28;20458;-67
2022/11/11 12:57:38;;;;;;;2.73;2.40;;;14.80;99.90;;;;;;4975307;28;20414;-67
2022/11/11 13:00:07;;;;;;;2.27;2.17;;;14.80;99.90;;;;;;4975322;28;20410;-67
2022/11/11 13:02:36;;;;;;;3.10;2.80;;;14.90;99.90;;;;;;4975050;28;20459;-68
2022/11/11 13:05:10;;;;;;;2.20;2.10;;;14.80;99.90;;;;;;4974548;28;20907;-67
2022/11/11 13:08:00;;;;;;;2.23;2.03;;;14.80;99.90;;;;;;4975178;28;20415;-66
2022/11/11 13:10:58;;;;;;;1.80;1.70;;;14.90;99.90;;;;;;4974807;28;20422;-66
2022/11/11 13:13:41;;;;;;;2.57;1.97;;;15.00;99.90;;;;;;4955789;28;20507;-67
2022/11/11 13:16:08;;;;;;;4.80;2.77;;;15.00;99.90;;;;;;4956967;28;20407;-67
2022/11/11 13:18:58;;;;;;;3.03;2.17;;;15.10;99.90;;;;;;4974055;28;20419;-69
2022/11/11 13:21:36;;;;;;;6.40;2.33;;;15.20;99.90;;;;;;4974655;28;20429;-66
2022/11/11 13:24:03;;;;;;;2.93;2.73;;;15.20;99.90;;;;;;4974016;28;20446;-67
2022/11/11 13:26:39;;;;;;;2.60;2.10;;;15.30;99.90;;;;;;4974770;28;20418;-67
2022/11/11 13:29:34;;;;;;;3.00;2.50;;;15.40;99.90;;;;;;4972869;28;20407;-68
2022/11/11 13:32:02;;;;;;;2.33;2.20;;;15.40;99.90;;;;;;4972695;28;20907;-68
2022/11/11 13:34:33;;;;;;;2.37;2.17;;;15.50;99.90;;;;;;4972295;28;20780;-69
2022/11/11 13:37:03;;;;;;;2.27;2.07;;;15.50;99.90;;;;;;4972552;28;20470;-68
2022/11/11 13:39:39;;;;;;;1.97;1.87;;;15.50;99.90;;;;;;4972313;28;20820;-68
2022/11/11 13:42:06;;;;;;;2.50;2.00;;;15.40;99.90;;;;;;4972483;28;20946;-68
2022/11/11 13:44:57;;;;;;;1.93;1.83;;;15.40;99.90;;;;;;4956660;28;20451;-66
2022/11/11 13:47:43;;;;;;;1.60;1.50;;;15.40;99.90;;;;;;4974803;28;20384;-66
2022/11/11 13:50:27;;;;;;;2.00;1.90;;;15.40;99.90;;;;;;4957734;28;20778;-66
2022/11/11 13:53:03;;;;;;;2.27;2.03;;;15.40;99.90;;;;;;4973827;28;20416;-67
2022/11/11 13:55:35;;;;;;;2.37;2.17;;;15.40;99.90;;;;;;4974356;28;20410;-67
2022/11/11 13:58:01;;;;;;;4.93;3.00;;;15.40;99.90;;;;;;4974520;28;20387;-67
2022/11/11 14:00:37;;;;;;;3.43;2.47;;;15.50;99.90;;;;;;4974411;28;20409;-66
2022/11/11 14:03:21;;;;;;;7.40;2.60;;;15.40;99.90;;;;;;4974233;28;20773;-67
2022/11/11 14:05:47;;;;;;;2.20;2.00;;;15.40;99.90;;;;;;4973794;28;20816;-67
2022/11/11 14:08:46;;;;;;;3.50;2.33;;;15.30;99.90;;;;;;4973969;28;20420;-66
2022/11/11 14:11:24;;;;;;;2.33;2.13;;;15.30;99.90;;;;;;4974888;28;20165;-67
2022/11/11 14:14:12;;;;;;;2.00;1.80;;;15.30;99.90;;;;;;4973893;28;20999;-67
2022/11/11 14:16:37;;;;;;;2.67;2.23;;;15.20;99.90;;;;;;4974204;28;20411;-68
2022/11/11 14:19:18;;;;;;;4.20;2.60;;;15.10;99.90;;;;;;4970425;28;20448;-67
2022/11/11 14:21:54;;;;;;;2.30;2.10;;;15.00;99.90;;;;;;4954213;29;20215;-68
2022/11/11 14:24:39;;;;;;;2.50;2.00;;;15.10;99.90;;;;;;4953111;28;20790;-68
2022/11/11 14:27:08;;;;;;;3.07;2.40;;;15.10;99.90;;;;;;4953166;28;20754;-69
2022/11/11 14:29:57;;;;;;;2.80;2.60;;;15.00;99.90;;;;;;4973060;28;20498;-70
2022/11/11 14:32:35;;;;;;;2.50;2.30;;;15.10;99.90;;;;;;4973588;28;20431;-68
2022/11/11 14:35:21;;;;;;;2.80;2.30;;;15.00;99.90;;;;;;4956415;28;20438;-68
2022/11/11 14:38:03;;;;;;;2.10;2.00;;;15.00;99.90;;;;;;4973758;28;20444;-67
2022/11/11 14:40:31;;;;;;;5.13;2.07;;;14.90;99.90;;;;;;4973881;28;20427;-68
2022/11/11 14:42:58;;;;;;;2.30;2.10;;;14.90;99.90;;;;;;4973792;28;20389;-67
2022/11/11 14:45:30;;;;;;;2.73;2.07;;;14.90;99.90;;;;;;4973826;28;20420;-68
2022/11/11 14:47:59;;;;;;;2.17;2.00;;;14.80;99.90;;;;;;4956389;28;20408;-68
2022/11/11 14:50:30;;;;;;;2.60;2.40;;;14.80;99.90;;;;;;4957981;28;20419;-67
2022/11/11 14:53:20;;;;;;;2.97;2.77;;;14.70;99.90;;;;;;4973430;28;20379;-67
2022/11/11 14:55:54;;;;;;;3.37;2.27;;;14.60;99.90;;;;;;4965813;28;20467;-68
2022/11/11 14:58:24;;;;;;;2.43;2.33;;;14.50;99.90;;;;;;4973737;28;20404;-68
2022/11/11 15:01:03;;;;;;;2.53;2.33;;;14.40;99.90;;;;;;4956310;28;20545;-67
2022/11/11 15:03:41;;;;;;;2.30;2.03;;;14.30;99.90;;;;;;4973623;28;20411;-67
2022/11/11 15:06:20;;;;;;;2.10;2.00;;;14.30;99.90;;;;;;4973823;28;20393;-67
2022/11/11 15:08:56;;;;;;;3.00;2.80;;;14.20;99.90;;;;;;4968748;28;20447;-67
2022/11/11 15:11:50;;;;;;;5.20;2.63;;;14.10;99.90;;;;;;4936894;29;20424;-67
2022/11/11 15:14:25;;;;;;;3.90;3.50;;;14.10;99.90;;;;;;4936633;29;20952;-68
2022/11/11 15:17:02;;;;;;;6.40;4.07;;;14.00;99.90;;;;;;4954063;29;20506;-66
2022/11/11 15:19:58;;;;;;;6.43;4.13;;;13.90;99.90;;;;;;4954281;29;20474;-67
2022/11/11 15:22:42;;;;;;;4.33;3.97;;;13.70;99.90;;;;;;4955121;28;20460;-67
2022/11/11 15:25:43;;;;;;;3.30;3.00;;;13.60;99.90;;;;;;4954262;28;20912;-66
2022/11/11 15:28:47;;;;;;;2.50;2.30;;;13.50;99.90;;;;;;4954331;29;20425;-66
2022/11/11 15:31:30;;;;;;;3.63;2.63;;;13.40;99.90;;;;;;4918753;29;20433;-66
2022/11/11 15:34:25;;;;;;;3.23;3.00;;;13.30;99.90;;;;;;4953881;28;20436;-66
2022/11/11 15:36:59;;;;;;;3.60;3.30;;;13.20;99.90;;;;;;4961533;28;20787;-66
2022/11/11 15:39:48;;;;;;;8.27;5.70;;;13.10;99.90;;;;;;4976773;28;20906;-68
2022/11/11 15:42:36;;;;;;;6.47;4.87;;;13.00;99.90;;;;;;4976865;28;20454;-67
2022/11/11 15:45:23;;;;;;;6.23;5.50;;;12.90;99.90;;;;;;4976361;28;20405;-68
2022/11/11 15:47:49;;;;;;;8.63;5.30;;;12.80;99.90;;;;;;4976417;28;20421;-68
2022/11/11 15:50:35;;;;;;;5.90;5.17;;;12.70;99.90;;;;;;4972724;28;20478;-67
2022/11/11 15:53:01;;;;;;;7.07;3.80;;;12.60;99.90;;;;;;4965532;28;20755;-67
2022/11/11 15:55:29;;;;;;;5.90;4.77;;;12.50;99.90;;;;;;4970833;28;20951;-67
2022/11/11 15:58:06;;;;;;;7.03;5.37;;;12.40;99.90;;;;;;4958719;28;20428;-68
2022/11/11 16:00:32;;;;;;;5.10;4.20;;;12.30;99.90;;;;;;4976219;28;20381;-68
2022/11/11 16:02:58;;;;;;;7.90;5.10;;;12.20;99.90;;;;;;4958478;28;20412;-68
2022/11/11 16:05:25;;;;;;;4.43;4.03;;;12.10;99.90;;;;;;4975498;28;20810;-68
2022/11/11 16:07:54;;;;;;;4.83;3.70;;;12.00;99.90;;;;;;4976307;28;20396;-67
2022/11/11 16:10:30;;;;;;;5.93;3.63;;;11.90;99.90;;;;;;4976309;28;20496;-68
2022/11/11 16:12:58;;;;;;;6.43;4.50;;;11.80;99.90;;;;;;4958383;28;20288;-67
2022/11/11 16:15:41;;;;;;;5.32;3.47;;;11.70;99.90;;;;;;4975871;28;20433;-67
2022/11/11 16:18:17;;;;;;;3.53;3.10;;;11.70;99.90;;;;;;4973349;28;20714;-68
2022/11/11 16:20:53;;;;;;;3.43;3.13;;;11.60;99.90;;;;;;4956751;29;20268;-68
2022/11/11 16:23:20;;;;;;;4.60;3.35;;;11.50;99.90;;;;;;4956491;29;20449;-68
2022/11/11 16:25:47;;;;;;;5.35;4.63;;;11.40;99.90;;;;;;4956563;28;20226;-67
2022/11/11 16:28:14;;;;;;;6.87;4.73;;;11.40;99.90;;;;;;4956616;29;20170;-67
2022/11/11 16:30:39;;;;;;;8.10;4.47;;;11.30;99.90;;;;;;4956598;29;20871;-67
2022/11/11 16:33:26;;;;;;;6.40;4.80;;;11.20;99.90;;;;;;4971264;28;20193;-67
2022/11/11 16:35:52;;;;;;;6.75;5.10;;;11.20;99.90;;;;;;4976099;28;20236;-66
2022/11/11 16:38:33;;;;;;;5.57;4.70;;;11.10;99.90;;;;;;4976044;28;20173;-67
2022/11/11 16:40:59;;;;;;;7.70;6.28;;;11.10;99.90;;;;;;4958813;28;20563;-68
2022/11/11 16:43:32;;;;;;;9.33;6.83;;;11.00;99.90;;;;;;4971143;28;20260;-65
2022/11/11 16:46:05;;;;;;;8.68;5.65;;;11.00;99.90;;;;;;4975276;28;20204;-66
2022/11/11 16:48:32;;;;;;;6.50;5.25;;;10.90;99.90;;;;;;4975667;28;20200;-65
2022/11/11 16:51:04;;;;;;;6.47;4.93;;;10.90;99.90;;;;;;4975568;28;20239;-67
2022/11/11 16:53:37;;;;;;;5.43;4.90;;;10.80;99.90;;;;;;4974865;28;20548;-66
2022/11/11 16:56:04;;;;;;;6.30;5.10;;;10.70;99.90;;;;;;4975359;28;20219;-65
2022/11/11 16:58:29;;;;;;;6.18;4.90;;;10.70;99.90;;;;;;4974989;28;20215;-65
2022/11/11 17:01:00;;;;;;;6.80;4.90;;;10.60;99.90;;;;;;4957564;28;20697;-67
2022/11/11 17:03:26;;;;;;;5.20;4.45;;;10.60;99.90;;;;;;4974561;28;20514;-66
2022/11/11 17:05:56;;;;;;;5.25;4.75;;;10.50;99.90;;;;;;4974716;28;20197;-67
2022/11/11 17:08:27;;;;;;;4.03;3.67;;;10.40;99.90;;;;;;4974894;28;20199;-67
2022/11/11 17:10:53;;;;;;;6.03;3.63;;;10.30;99.90;;;;;;4974877;28;20235;-67
2022/11/11 17:13:19;;;;;;;4.73;4.30;;;10.30;99.90;;;;;;4957308;28;20515;-67
2022/11/11 17:15:44;;;;;;;6.70;5.03;;;10.20;99.90;;;;;;4974520;28;20227;-66
2022/11/11 17:18:12;;;;;;;8.73;6.90;;;10.20;99.90;;;;;;4973973;28;20267;-67
2022/11/11 17:20:38;;;;;;;10.77;6.47;;;10.10;99.90;;;;;;4975710;28;20176;-67
2022/11/11 17:23:07;;;;;;;9.47;6.97;;;10.00;99.90;;;;;;4974510;28;20191;-66
2022/11/11 17:25:33;;;;;;;8.10;6.78;;;9.90;99.90;;;;;;4974323;28;20530;-65
2022/11/11 17:27:59;;;;;;;6.40;5.73;;;9.90;99.90;;;;;;4975087;28;20300;-67
2022/11/11 17:30:24;;;;;;;6.37;5.70;;;9.80;99.90;;;;;;4974378;28;20908;-66
2022/11/11 17:32:50;;;;;;;8.07;6.07;;;9.80;99.90;;;;;;4973600;28;20188;-67
2022/11/11 17:35:16;;;;;;;6.80;5.70;;;9.70;99.90;;;;;;4974283;28;20209;-67
2022/11/11 17:37:42;;;;;;;5.88;5.28;;;9.70;99.90;;;;;;4974734;28;20540;-64
2022/11/11 17:40:10;;;;;;;5.43;4.32;;;9.60;99.90;;;;;;4974516;28;20187;-66
2022/11/11 17:42:36;;;;;;;5.60;5.20;;;9.50;99.90;;;;;;4973916;28;20587;-66
2022/11/11 17:45:03;;;;;;;5.82;5.22;;;9.50;99.90;;;;;;4974114;28;20593;-68
2022/11/11 17:47:30;;;;;;;4.20;3.17;;;9.50;99.90;;;;;;4956560;28;20663;-68
2022/11/11 17:49:56;;;;;;;6.78;4.22;;;9.40;99.90;;;;;;4974100;28;20176;-67
2022/11/11 17:52:22;;;;;;;4.05;3.47;;;9.40;99.90;;;;;;4973762;28;20182;-68
2022/11/11 17:54:48;;;;;;;4.17;3.77;;;9.30;99.90;;;;;;4973219;28;20187;-70
2022/11/11 17:57:13;;;;;;;4.40;4.00;;;9.30;99.90;;;;;;4972668;28;20184;-68
2022/11/11 17:59:39;;;;;;;4.87;4.00;;;9.20;99.90;;;;;;4974176;28;20243;-67
2022/11/11 18:02:05;;;;;;;3.07;2.87;;;9.20;99.90;;;;;;4974088;28;20287;-68
2022/11/11 18:04:30;;;;;;;3.73;3.30;;;9.10;99.90;;;;;;4973879;28;20195;-67
2022/11/11 18:06:56;;;;;;;3.97;3.57;;;9.10;99.90;;;;;;4973725;28;20218;-68
2022/11/11 18:09:21;;;;;;;4.70;3.80;;;9.10;99.90;;;;;;4974346;28;20195;-67
2022/11/11 18:11:47;;;;;;;5.77;4.43;;;9.00;99.90;;;;;;4974079;28;20180;-67
2022/11/11 18:14:16;;;;;;;5.17;4.67;;;9.00;99.90;;;;;;4973188;28;20211;-67
2022/11/11 18:16:42;;;;;;;4.97;4.50;;;9.00;99.90;;;;;;4973141;28;20187;-68
2022/11/11 18:19:08;;;;;;;4.05;3.75;;;8.90;99.90;;;;;;4973945;28;20176;-67
2022/11/11 18:21:35;;;;;;;5.63;4.80;;;8.90;99.90;;;;;;4973640;28;20682;-67
2022/11/11 18:24:03;;;;;;;4.78;4.38;;;8.90;99.90;;;;;;4973433;28;20203;-65
2022/11/11 18:26:28;;;;;;;4.47;4.10;;;8.90;99.90;;;;;;4973671;28;20234;-65
2022/11/11 18:28:54;;;;;;;4.50;3.50;;;8.80;99.90;;;;;;4973754;28;20640;-66
2022/11/11 18:31:20;;;;;;;13.33;4.80;;;8.80;99.90;;;;;;4973341;28;20180;-67
2022/11/11 18:33:46;;;;;;;10.07;5.10;;;8.70;99.90;;;;;;4973374;28;20246;-65
2022/11/11 18:36:17;;;;;;;5.53;4.97;;;8.70;99.90;;;;;;4956150;28;20259;-67
2022/11/11 18:38:43;;;;;;;6.13;5.25;;;8.70;99.90;;;;;;4973963;28;20407;-67